createdAt,value
2023-05-26T00:00:25.642Z,195.66
2023-05-26T00:01:26.681Z,193.74
2023-05-26T00:02:26.779Z,195.84
2023-05-26T00:03:25.872Z,190.56
2023-05-26T00:04:26.828Z,194.10
2023-05-26T00:05:26.821Z,194.45
2023-05-26T00:06:26.873Z,194.60
2023-05-26T00:07:26.868Z,193.91
2023-05-26T00:08:26.897Z,195.33
2023-05-26T00:09:26.961Z,192.15
2023-05-26T00:10:25.974Z,195.13
2023-05-26T00:11:27.018Z,195.39
2023-05-26T00:12:27.057Z,195.52
2023-05-26T00:13:27.109Z,194.14
2023-05-26T00:14:27.126Z,195.20
2023-05-26T00:15:27.157Z,193.97
2023-05-26T00:16:27.275Z,193.32
2023-05-26T00:17:27.245Z,195.06
2023-05-26T00:18:27.276Z,194.76
2023-05-26T00:19:27.304Z,195.18
2023-05-26T00:20:26.424Z,195.09
2023-05-26T00:21:26.388Z,193.58
2023-05-26T00:22:26.418Z,193.21
2023-05-26T00:23:27.452Z,193.59
2023-05-26T00:24:27.491Z,194.92
2023-05-26T00:25:26.516Z,191.71
2023-05-26T00:26:27.569Z,192.91
2023-05-26T00:27:27.593Z,194.88
2023-05-26T00:28:26.634Z,195.15
2023-05-26T00:29:29.533Z,195.11
2023-05-26T00:30:27.652Z,193.84
2023-05-26T00:31:26.696Z,196.24
2023-05-26T00:32:26.697Z,195.86
2023-05-26T00:33:27.643Z,195.26
2023-05-26T00:34:27.641Z,195.13
2023-05-26T00:35:27.636Z,193.54
2023-05-26T00:36:27.617Z,194.30
2023-05-26T00:37:27.605Z,194.20
2023-05-26T00:38:27.600Z,193.58
2023-05-26T00:39:27.612Z,194.62
2023-05-26T00:40:27.628Z,194.34
2023-05-26T00:41:27.604Z,192.35
2023-05-26T00:42:27.580Z,192.80
2023-05-26T00:43:27.585Z,192.93
2023-05-26T00:44:26.585Z,193.18
2023-05-26T00:45:27.596Z,193.06
2023-05-26T00:46:27.624Z,191.73
2023-05-26T00:47:27.590Z,192.16
2023-05-26T00:48:27.563Z,192.55
2023-05-26T00:49:27.528Z,192.64
2023-05-26T00:50:26.515Z,194.65
2023-05-26T00:51:26.523Z,190.95
2023-05-26T00:52:27.521Z,194.10
2023-05-26T00:53:27.503Z,190.68
2023-05-26T00:54:27.494Z,193.88
2023-05-26T00:55:27.515Z,192.37
2023-05-26T00:56:26.486Z,192.46
2023-05-26T00:57:27.477Z,193.31
2023-05-26T00:58:27.474Z,192.20
2023-05-26T00:59:27.470Z,192.24
2023-05-26T01:00:26.450Z,191.30
2023-05-26T01:01:27.570Z,192.68
2023-05-26T01:02:27.477Z,192.15
2023-05-26T01:03:26.491Z,191.50
2023-05-26T01:04:26.459Z,192.17
2023-05-26T01:05:26.517Z,191.65
2023-05-26T01:06:27.568Z,191.07
2023-05-26T01:07:27.599Z,192.47
2023-05-26T01:08:26.634Z,191.29
2023-05-26T01:09:27.682Z,190.81
2023-05-26T01:10:26.711Z,190.57
2023-05-26T01:11:27.874Z,190.35
2023-05-26T01:12:27.825Z,191.62
2023-05-26T01:13:26.866Z,189.58
2023-05-26T01:14:27.912Z,191.91
2023-05-26T01:15:27.960Z,190.95
2023-05-26T01:16:28.041Z,189.12
2023-05-26T01:17:27.069Z,190.76
2023-05-26T01:18:28.078Z,190.49
2023-05-26T01:19:27.117Z,192.54
2023-05-26T01:20:28.203Z,192.20
2023-05-26T01:21:27.213Z,191.07
2023-05-26T01:22:28.269Z,189.36
2023-05-26T01:23:27.304Z,190.87
2023-05-26T01:24:27.362Z,190.06
2023-05-26T01:25:28.408Z,190.31
2023-05-26T01:26:28.466Z,187.55
2023-05-26T01:27:27.515Z,189.98
2023-05-26T01:28:27.540Z,190.97
2023-05-26T01:29:28.605Z,190.52
2023-05-26T01:30:28.657Z,188.97
2023-05-26T01:31:27.673Z,191.72
2023-05-26T01:32:28.747Z,190.01
2023-05-26T01:33:29.028Z,188.95
2023-05-26T01:34:28.815Z,187.30
2023-05-26T01:35:27.834Z,190.62
2023-05-26T01:36:27.895Z,189.90
2023-05-26T01:37:27.948Z,191.18
2023-05-26T01:38:28.997Z,190.59
2023-05-26T01:39:29.040Z,189.05
2023-05-26T01:40:29.069Z,189.32
2023-05-26T01:41:29.164Z,189.55
2023-05-26T01:42:31.979Z,190.65
2023-05-26T01:43:28.159Z,190.72
2023-05-26T01:44:29.172Z,189.75
2023-05-26T01:45:29.153Z,187.85
2023-05-26T01:46:29.243Z,191.07
2023-05-26T01:47:29.157Z,189.57
2023-05-26T01:48:28.140Z,189.44
2023-05-26T01:49:29.149Z,189.21
2023-05-26T01:50:28.120Z,187.14
2023-05-26T01:51:29.130Z,190.11
2023-05-26T01:52:28.115Z,189.67
2023-05-26T01:53:28.119Z,188.64
2023-05-26T01:54:29.109Z,188.81
2023-05-26T01:55:29.092Z,188.91
2023-05-26T01:56:29.079Z,188.30
2023-05-26T01:57:29.090Z,189.33
2023-05-26T01:58:28.079Z,185.72
2023-05-26T01:59:28.055Z,186.92
2023-05-26T02:00:28.057Z,188.55
2023-05-26T02:01:29.101Z,188.19
2023-05-26T02:02:29.147Z,188.72
2023-05-26T02:03:28.151Z,187.98
2023-05-26T02:04:29.029Z,187.80
2023-05-26T02:05:28.051Z,185.48
2023-05-26T02:06:29.024Z,187.07
2023-05-26T02:07:29.027Z,188.25
2023-05-26T02:08:29.007Z,187.14
2023-05-26T02:09:28.984Z,185.43
2023-05-26T02:10:29.039Z,185.99
2023-05-26T02:11:28.072Z,187.28
2023-05-26T02:12:29.128Z,188.25
2023-05-26T02:13:29.180Z,187.85
2023-05-26T02:14:28.224Z,185.25
2023-05-26T02:15:29.294Z,189.39
2023-05-26T02:16:28.378Z,186.33
2023-05-26T02:17:28.428Z,187.71
2023-05-26T02:18:29.460Z,184.24
2023-05-26T02:19:28.510Z,188.09
2023-05-26T02:20:29.606Z,185.77
2023-05-26T02:21:29.624Z,186.97
2023-05-26T02:22:28.666Z,187.39
2023-05-26T02:23:28.709Z,187.66
2023-05-26T02:24:29.756Z,188.95
2023-05-26T02:25:28.801Z,189.16
2023-05-26T02:26:28.825Z,184.30
2023-05-26T02:27:28.896Z,184.95
2023-05-26T02:28:29.915Z,183.73
2023-05-26T02:29:29.964Z,186.33
2023-05-26T02:30:30.021Z,185.36
2023-05-26T02:31:30.504Z,186.19
2023-05-26T02:32:29.106Z,186.63
2023-05-26T02:33:29.045Z,186.79
2023-05-26T02:34:29.064Z,188.61
2023-05-26T02:35:30.038Z,187.88
2023-05-26T02:36:30.038Z,188.04
2023-05-26T02:37:30.040Z,187.71
2023-05-26T02:38:30.011Z,184.93
2023-05-26T02:39:29.003Z,189.07
2023-05-26T02:40:28.999Z,186.22
2023-05-26T02:41:29.993Z,186.89
2023-05-26T02:42:28.991Z,183.30
2023-05-26T02:43:29.999Z,185.44
2023-05-26T02:44:29.962Z,186.41
2023-05-26T02:45:29.973Z,185.52
2023-05-26T02:46:29.962Z,188.25
2023-05-26T02:47:30.006Z,186.81
2023-05-26T02:48:29.952Z,186.59
2023-05-26T02:49:29.938Z,187.35
2023-05-26T02:50:28.938Z,183.67
2023-05-26T02:51:28.932Z,186.45
2023-05-26T02:52:29.940Z,182.89
2023-05-26T02:53:29.935Z,185.28
2023-05-26T02:54:28.931Z,186.88
2023-05-26T02:55:28.903Z,184.92
2023-05-26T02:56:28.904Z,185.01
2023-05-26T02:57:31.421Z,184.99
2023-05-26T02:58:30.052Z,185.96
2023-05-26T02:59:30.114Z,184.83
2023-05-26T03:00:29.136Z,185.56
2023-05-26T03:01:30.256Z,183.23
2023-05-26T03:02:29.281Z,184.38
2023-05-26T03:03:29.398Z,183.87
2023-05-26T03:04:29.374Z,186.24
2023-05-26T03:05:30.407Z,183.05
2023-05-26T03:06:30.461Z,183.68
2023-05-26T03:07:29.564Z,183.49
2023-05-26T03:08:29.565Z,183.94
2023-05-26T03:09:30.656Z,183.19
2023-05-26T03:10:30.668Z,183.47
2023-05-26T03:11:29.699Z,183.93
2023-05-26T03:12:30.775Z,182.65
2023-05-26T03:13:30.802Z,186.79
2023-05-26T03:14:30.839Z,184.79
2023-05-26T03:15:29.902Z,183.49
2023-05-26T03:16:31.006Z,185.55
2023-05-26T03:17:30.042Z,182.14
2023-05-26T03:18:30.002Z,186.29
2023-05-26T03:19:31.055Z,184.59
2023-05-26T03:20:31.186Z,183.06
2023-05-26T03:21:46.534Z,181.75
2023-05-26T03:22:39.845Z,181.96
2023-05-26T03:23:31.148Z,182.11
2023-05-26T03:24:31.155Z,182.91
2023-05-26T03:25:30.167Z,183.54
2023-05-26T03:26:31.134Z,183.09
2023-05-26T03:27:31.121Z,184.76
2023-05-26T03:28:31.123Z,182.29
2023-05-26T03:29:31.101Z,184.75
2023-05-26T03:30:31.122Z,184.46
2023-05-26T03:31:31.138Z,184.64
2023-05-26T03:32:30.134Z,180.70
2023-05-26T03:33:31.092Z,181.10
2023-05-26T03:34:31.075Z,183.43
2023-05-26T03:35:31.062Z,180.67
2023-05-26T03:36:30.083Z,182.25
2023-05-26T03:37:30.174Z,182.40
2023-05-26T03:38:30.069Z,182.15
2023-05-26T03:39:31.036Z,181.27
2023-05-26T03:40:31.040Z,182.04
2023-05-26T03:41:31.077Z,181.19
2023-05-26T03:42:31.026Z,182.31
2023-05-26T03:43:31.015Z,180.57
2023-05-26T03:44:31.038Z,180.70
2023-05-26T03:45:31.015Z,179.83
2023-05-26T03:46:31.027Z,179.73
2023-05-26T03:47:30.995Z,181.61
2023-05-26T03:48:30.978Z,183.10
2023-05-26T03:49:30.979Z,182.01
2023-05-26T03:50:30.969Z,179.64
2023-05-26T03:51:30.969Z,180.70
2023-05-26T03:52:29.971Z,180.43
2023-05-26T03:53:29.988Z,181.57
2023-05-26T03:54:31.014Z,180.68
2023-05-26T03:55:31.045Z,181.30
2023-05-26T03:56:31.134Z,180.25
2023-05-26T03:57:31.169Z,181.74
2023-05-26T03:58:30.189Z,178.78
2023-05-26T03:59:30.215Z,180.42
2023-05-26T04:00:31.259Z,179.49
2023-05-26T04:01:30.291Z,181.29
2023-05-26T04:02:31.429Z,177.89
2023-05-26T04:03:31.385Z,178.80
2023-05-26T04:04:31.471Z,177.59
2023-05-26T04:05:31.487Z,179.59
2023-05-26T04:06:31.508Z,178.68
2023-05-26T04:07:31.571Z,177.49
2023-05-26T04:08:30.580Z,177.45
2023-05-26T04:09:30.615Z,178.73
2023-05-26T04:10:31.645Z,177.33
2023-05-26T04:11:31.680Z,179.18
2023-05-26T04:12:30.692Z,178.70
2023-05-26T04:13:30.787Z,177.83
2023-05-26T04:14:31.769Z,175.30
2023-05-26T04:15:31.824Z,176.87
2023-05-26T04:16:31.950Z,176.08
2023-05-26T04:17:30.900Z,178.01
2023-05-26T04:18:31.925Z,175.86
2023-05-26T04:19:30.972Z,178.21
2023-05-26T04:20:32.062Z,180.02
2023-05-26T04:21:32.039Z,177.17
2023-05-26T04:22:31.079Z,177.19
2023-05-26T04:23:32.136Z,176.04
2023-05-26T04:24:32.166Z,175.24
2023-05-26T04:25:32.190Z,175.03
2023-05-26T04:26:32.229Z,175.47
2023-05-26T04:27:32.248Z,175.07
2023-05-26T04:28:32.335Z,173.35
2023-05-26T04:29:32.364Z,174.56
2023-05-26T04:30:32.399Z,178.37
2023-05-26T04:31:32.468Z,174.02
2023-05-26T04:32:31.488Z,176.88
2023-05-26T04:33:32.512Z,173.43
2023-05-26T04:34:32.541Z,173.87
2023-05-26T04:35:31.587Z,174.59
2023-05-26T04:36:32.604Z,173.98
2023-05-26T04:37:32.672Z,176.74
2023-05-26T04:38:32.711Z,175.69
2023-05-26T04:39:32.767Z,175.29
2023-05-26T04:40:32.800Z,175.14
2023-05-26T04:41:32.855Z,174.39
2023-05-26T04:42:31.849Z,176.43
2023-05-26T04:43:32.906Z,176.10
2023-05-26T04:44:32.956Z,176.20
2023-05-26T04:45:32.972Z,175.53
2023-05-26T04:46:33.069Z,174.27
2023-05-26T04:47:33.084Z,178.05
2023-05-26T04:48:33.118Z,174.71
2023-05-26T04:49:32.147Z,176.81
2023-05-26T04:50:32.173Z,173.42
2023-05-26T04:51:33.202Z,174.14
2023-05-26T04:52:32.217Z,173.39
2023-05-26T04:53:32.278Z,175.45
2023-05-26T04:54:33.298Z,174.85
2023-05-26T04:55:32.348Z,173.60
2023-05-26T04:56:32.343Z,173.94
2023-05-26T04:57:32.378Z,175.92
2023-05-26T04:58:33.522Z,161.36
2023-05-26T04:59:33.473Z,154.21
2023-05-26T05:00:32.528Z,150.61
2023-05-26T05:01:33.594Z,143.84
2023-05-26T05:02:33.558Z,139.09
2023-05-26T05:03:33.247Z,128.17
2023-05-26T05:04:33.602Z,123.74
2023-05-26T05:05:32.951Z,119.07
2023-05-26T05:06:33.966Z,117.91
2023-05-26T05:07:33.698Z,110.80
2023-05-26T05:08:32.972Z,107.17
2023-05-26T05:09:33.783Z,104.59
2023-05-26T05:10:33.817Z,98.75
2023-05-26T05:11:32.823Z,98.98
2023-05-26T05:12:32.851Z,96.09
2023-05-26T05:13:33.919Z,93.24
2023-05-26T05:14:32.921Z,86.62
2023-05-26T05:15:33.962Z,81.00
2023-05-26T05:16:33.019Z,80.51
2023-05-26T05:17:34.014Z,78.90
2023-05-26T05:18:34.022Z,80.24
2023-05-26T05:19:33.029Z,82.62
2023-05-26T05:20:34.084Z,81.54
2023-05-26T05:21:34.038Z,81.63
2023-05-26T05:22:33.052Z,81.93
2023-05-26T05:23:33.081Z,79.93
2023-05-26T05:24:33.096Z,81.01
2023-05-26T05:25:33.097Z,84.15
2023-05-26T05:26:34.133Z,78.58
2023-05-26T05:27:33.259Z,76.50
2023-05-26T05:28:34.192Z,78.00
2023-05-26T05:29:33.206Z,74.71
2023-05-26T05:30:34.226Z,76.78
2023-05-26T05:31:34.225Z,76.22
2023-05-26T05:32:34.286Z,75.96
2023-05-26T05:33:34.341Z,77.44
2023-05-26T05:34:34.274Z,75.79
2023-05-26T05:35:33.357Z,77.61
2023-05-26T05:36:33.288Z,78.54
2023-05-26T05:37:34.313Z,76.82
2023-05-26T05:38:33.318Z,76.99
2023-05-26T05:39:33.329Z,83.41
2023-05-26T05:40:34.366Z,83.63
2023-05-26T05:41:33.406Z,81.94
2023-05-26T05:42:34.473Z,81.12
2023-05-26T05:43:34.499Z,81.19
2023-05-26T05:44:33.537Z,79.74
2023-05-26T05:45:34.579Z,84.88
2023-05-26T05:46:33.672Z,86.73
2023-05-26T05:47:33.711Z,97.11
2023-05-26T05:48:34.734Z,109.58
2023-05-26T05:49:34.771Z,102.11
2023-05-26T05:50:33.815Z,99.48
2023-05-26T05:51:34.883Z,99.91
2023-05-26T05:52:34.907Z,101.95
2023-05-26T05:53:35.001Z,105.42
2023-05-26T05:54:34.996Z,104.56
2023-05-26T05:55:35.006Z,107.85
2023-05-26T05:56:34.048Z,113.47
2023-05-26T05:57:35.034Z,121.22
2023-05-26T05:58:35.045Z,120.52
2023-05-26T05:59:34.112Z,122.61
2023-05-26T06:00:34.134Z,136.17
2023-05-26T06:01:35.182Z,131.77
2023-05-26T06:02:34.322Z,117.11
2023-05-26T06:03:34.476Z,111.39
2023-05-26T06:04:35.417Z,112.20
2023-05-26T06:05:34.357Z,105.82
2023-05-26T06:06:34.493Z,103.92
2023-05-26T06:07:35.429Z,108.14
2023-05-26T06:08:35.446Z,106.79
2023-05-26T06:09:35.513Z,106.52
2023-05-26T06:10:35.523Z,99.88
2023-05-26T06:11:34.543Z,100.05
2023-05-26T06:12:35.552Z,101.95
2023-05-26T06:13:35.605Z,119.03
2023-05-26T06:14:35.654Z,119.56
2023-05-26T06:15:35.668Z,118.30
2023-05-26T06:16:35.809Z,117.51
2023-05-26T06:17:35.856Z,116.13
2023-05-26T06:18:35.931Z,111.48
2023-05-26T06:19:34.840Z,110.79
2023-05-26T06:20:35.943Z,108.78
2023-05-26T06:21:34.945Z,115.25
2023-05-26T06:22:35.991Z,127.32
2023-05-26T06:23:36.428Z,126.20
2023-05-26T06:24:36.055Z,131.28
2023-05-26T06:25:36.086Z,130.50
2023-05-26T06:26:36.128Z,133.22
2023-05-26T06:27:36.156Z,134.77
2023-05-26T06:28:35.234Z,135.40
2023-05-26T06:29:35.234Z,132.43
2023-05-26T06:30:36.270Z,135.59
2023-05-26T06:31:35.380Z,138.27
2023-05-26T06:32:35.432Z,139.55
2023-05-26T06:33:35.386Z,143.69
2023-05-26T06:34:35.440Z,144.41
2023-05-26T06:35:36.454Z,157.64
2023-05-26T06:36:35.501Z,166.49
2023-05-26T06:37:36.505Z,174.49
2023-05-26T06:38:36.544Z,177.96
2023-05-26T06:39:35.553Z,186.87
2023-05-26T06:40:36.613Z,190.58
2023-05-26T06:41:35.655Z,193.27
2023-05-26T06:42:36.700Z,198.64
2023-05-26T06:43:35.755Z,203.82
2023-05-26T06:44:35.767Z,207.21
2023-05-26T06:45:36.775Z,212.96
2023-05-26T06:46:36.812Z,212.10
2023-05-26T06:47:36.906Z,216.29
2023-05-26T06:48:35.866Z,220.15
2023-05-26T06:49:37.387Z,226.21
2023-05-26T06:50:36.909Z,221.14
2023-05-26T06:51:35.900Z,224.23
2023-05-26T06:52:36.982Z,206.37
2023-05-26T06:53:36.965Z,180.01
2023-05-26T06:54:36.984Z,191.15
2023-05-26T06:55:37.017Z,200.72
2023-05-26T06:56:37.030Z,202.31
2023-05-26T06:57:37.051Z,192.60
2023-05-26T06:58:37.052Z,189.71
2023-05-26T06:59:37.091Z,180.44
2023-05-26T07:00:36.176Z,181.27
2023-05-26T07:01:37.228Z,181.99
2023-05-26T07:02:37.265Z,178.86
2023-05-26T07:03:37.260Z,177.26
2023-05-26T07:04:37.330Z,181.63
2023-05-26T07:05:38.065Z,178.08
2023-05-26T07:06:46.571Z,173.24
2023-05-26T07:07:37.454Z,173.49
2023-05-26T07:08:37.424Z,173.34
2023-05-26T07:09:36.430Z,169.44
2023-05-26T07:10:37.398Z,162.09
2023-05-26T07:11:36.377Z,155.13
2023-05-26T07:12:36.397Z,154.64
2023-05-26T07:13:36.381Z,156.14
2023-05-26T07:14:38.582Z,133.18
2023-05-26T07:15:36.390Z,124.90
2023-05-26T07:16:37.520Z,106.87
2023-05-26T07:17:36.466Z,98.71
2023-05-26T07:18:37.520Z,97.60
2023-05-26T07:19:37.525Z,100.07
2023-05-26T07:20:36.684Z,102.79
2023-05-26T07:21:36.634Z,103.10
2023-05-26T07:22:36.689Z,101.89
2023-05-26T07:23:36.713Z,103.86
2023-05-26T07:24:37.780Z,102.14
2023-05-26T07:25:37.816Z,102.53
2023-05-26T07:26:37.877Z,100.05
2023-05-26T07:27:36.948Z,99.76
2023-05-26T07:28:37.976Z,102.47
2023-05-26T07:29:38.012Z,100.47
2023-05-26T07:30:38.072Z,96.76
2023-05-26T07:31:38.170Z,99.56
2023-05-26T07:32:38.213Z,108.35
2023-05-26T07:33:38.303Z,105.66
2023-05-26T07:34:38.261Z,113.16
2023-05-26T07:35:38.260Z,107.26
2023-05-26T07:36:38.259Z,103.17
2023-05-26T07:37:38.263Z,107.49
2023-05-26T07:38:38.327Z,105.17
2023-05-26T07:39:37.298Z,104.93
2023-05-26T07:40:38.303Z,102.05
2023-05-26T07:41:37.319Z,100.94
2023-05-26T07:42:37.332Z,97.42
2023-05-26T07:43:38.361Z,97.35
2023-05-26T07:44:37.354Z,95.64
2023-05-26T07:45:38.436Z,93.36
2023-05-26T07:46:38.531Z,77.55
2023-05-26T07:47:38.457Z,71.74
2023-05-26T07:48:38.440Z,71.06
2023-05-26T07:49:37.927Z,66.50
2023-05-26T07:50:37.534Z,46.85
2023-05-26T07:51:38.560Z,58.56
2023-05-26T07:52:38.593Z,65.69
2023-05-26T07:53:37.590Z,62.07
2023-05-26T07:54:37.945Z,72.47
2023-05-26T07:55:37.601Z,71.20
2023-05-26T07:56:38.621Z,61.78
2023-05-26T07:57:37.651Z,69.40
2023-05-26T07:58:38.707Z,71.34
2023-05-26T07:59:37.710Z,69.27
2023-05-26T08:00:38.770Z,70.65
2023-05-26T08:01:37.749Z,72.33
2023-05-26T08:02:38.902Z,71.73
2023-05-26T08:03:38.900Z,71.43
2023-05-26T08:04:37.841Z,74.17
2023-05-26T08:05:38.984Z,71.80
2023-05-26T08:06:38.007Z,76.82
2023-05-26T08:07:37.983Z,78.47
2023-05-26T08:08:39.021Z,74.75
2023-05-26T08:09:38.087Z,64.47
2023-05-26T08:10:38.154Z,65.83
2023-05-26T08:11:39.112Z,67.56
2023-05-26T08:12:38.119Z,70.64
2023-05-26T08:13:39.178Z,69.90
2023-05-26T08:14:39.283Z,73.04
2023-05-26T08:15:39.314Z,80.18
2023-05-26T08:16:39.456Z,77.75
2023-05-26T08:17:39.397Z,69.53
2023-05-26T08:18:39.404Z,68.45
2023-05-26T08:19:38.464Z,74.93
2023-05-26T08:20:39.559Z,77.13
2023-05-26T08:21:39.522Z,71.68
2023-05-26T08:22:39.560Z,69.80
2023-05-26T08:23:39.605Z,63.88
2023-05-26T08:24:39.636Z,67.06
2023-05-26T08:25:39.695Z,75.43
2023-05-26T08:26:39.714Z,70.91
2023-05-26T08:27:39.730Z,79.68
2023-05-26T08:28:39.773Z,69.01
2023-05-26T08:29:39.781Z,74.39
2023-05-26T08:30:39.798Z,79.36
2023-05-26T08:31:39.867Z,84.03
2023-05-26T08:32:39.009Z,79.77
2023-05-26T08:33:38.835Z,81.34
2023-05-26T08:34:39.862Z,81.38
2023-05-26T08:35:39.859Z,83.78
2023-05-26T08:36:39.883Z,85.55
2023-05-26T08:37:38.896Z,89.97
2023-05-26T08:38:39.908Z,85.61
2023-05-26T08:39:39.933Z,86.97
2023-05-26T08:40:39.927Z,89.55
2023-05-26T08:41:39.132Z,93.17
2023-05-26T08:42:38.973Z,94.57
2023-05-26T08:43:46.517Z,88.91
2023-05-26T08:44:40.470Z,89.26
2023-05-26T08:45:39.972Z,88.94
2023-05-26T08:46:39.966Z,86.60
2023-05-26T08:47:39.042Z,80.36
2023-05-26T08:48:39.937Z,62.92
2023-05-26T08:49:39.972Z,55.11
2023-05-26T08:50:38.933Z,37.37
2023-05-26T08:51:39.942Z,23.70
2023-05-26T08:52:38.920Z,27.24
2023-05-26T08:53:38.897Z,25.00
2023-05-26T08:54:39.933Z,20.48
2023-05-26T08:55:39.940Z,25.00
2023-05-26T08:56:39.914Z,35.11
2023-05-26T08:57:39.927Z,27.55
2023-05-26T08:58:38.889Z,24.22
2023-05-26T08:59:38.946Z,24.35
2023-05-26T09:00:38.863Z,25.32
2023-05-26T09:01:39.980Z,29.62
2023-05-26T09:02:39.885Z,25.00
2023-05-26T09:03:39.879Z,31.93
2023-05-26T09:04:38.843Z,26.28
2023-05-26T09:05:39.821Z,20.42
2023-05-26T09:06:38.805Z,25.33
2023-05-26T09:07:39.812Z,25.80
2023-05-26T09:08:39.831Z,25.00
2023-05-26T09:09:38.800Z,25.00
2023-05-26T09:10:38.806Z,39.90
2023-05-26T09:11:41.688Z,43.97
2023-05-26T09:12:38.790Z,42.47
2023-05-26T09:13:38.778Z,33.32
2023-05-26T09:14:39.779Z,36.41
2023-05-26T09:15:38.779Z,32.69
2023-05-26T09:16:39.810Z,27.50
2023-05-26T09:17:39.851Z,34.66
2023-05-26T09:18:39.734Z,37.45
2023-05-26T09:19:38.762Z,43.17
2023-05-26T09:20:38.798Z,36.41
2023-05-26T09:21:39.733Z,24.98
2023-05-26T09:22:38.695Z,21.25
2023-05-26T09:23:38.710Z,25.69
2023-05-26T09:24:38.702Z,24.79
2023-05-26T09:25:38.740Z,25.07
2023-05-26T09:26:39.684Z,25.76
2023-05-26T09:27:39.692Z,24.00
2023-05-26T09:28:38.697Z,31.68
2023-05-26T09:29:38.783Z,42.98
2023-05-26T09:30:39.683Z,38.14
2023-05-26T09:31:39.694Z,47.24
2023-05-26T09:32:38.683Z,50.63
2023-05-26T09:33:39.686Z,48.60
2023-05-26T09:34:38.655Z,52.60
2023-05-26T09:35:38.646Z,55.23
2023-05-26T09:36:39.630Z,60.75
2023-05-26T09:37:39.608Z,65.67
2023-05-26T09:38:39.628Z,70.50
2023-05-26T09:39:39.624Z,78.79
2023-05-26T09:40:39.618Z,84.91
2023-05-26T09:41:39.616Z,82.71
2023-05-26T09:42:39.610Z,84.81
2023-05-26T09:43:39.578Z,80.56
2023-05-26T09:44:39.588Z,72.01
2023-05-26T09:45:39.724Z,61.18
2023-05-26T09:46:38.586Z,53.58
2023-05-26T09:47:38.581Z,54.10
2023-05-26T09:48:39.552Z,67.69
2023-05-26T09:49:39.987Z,62.43
2023-05-26T09:50:39.541Z,55.32
2023-05-26T09:51:39.528Z,49.63
2023-05-26T09:52:39.532Z,40.43
2023-05-26T09:53:39.522Z,36.21
2023-05-26T09:54:39.562Z,24.19
2023-05-26T09:55:39.509Z,25.84
2023-05-26T09:56:38.518Z,39.97
2023-05-26T09:57:38.515Z,44.56
2023-05-26T09:58:39.479Z,55.16
2023-05-26T09:59:38.531Z,47.83
2023-05-26T10:00:39.520Z,41.64
2023-05-26T10:01:38.614Z,34.80
2023-05-26T10:02:39.653Z,31.80
2023-05-26T10:03:39.623Z,25.25
2023-05-26T10:04:39.649Z,23.84
2023-05-26T10:05:39.689Z,24.38
2023-05-26T10:06:39.709Z,26.21
2023-05-26T10:07:39.684Z,27.22
2023-05-26T10:08:39.711Z,26.10
2023-05-26T10:09:39.717Z,29.88
2023-05-26T10:10:39.710Z,29.13
2023-05-26T10:11:39.752Z,27.82
2023-05-26T10:12:39.751Z,29.79
2023-05-26T10:13:38.748Z,28.40
2023-05-26T10:14:39.782Z,32.27
2023-05-26T10:15:39.777Z,39.34
2023-05-26T10:16:39.864Z,44.03
2023-05-26T10:17:39.954Z,39.12
2023-05-26T10:18:39.910Z,38.31
2023-05-26T10:19:39.995Z,43.32
2023-05-26T10:20:40.043Z,38.43
2023-05-26T10:21:40.040Z,40.38
2023-05-26T10:22:40.185Z,42.38
2023-05-26T10:23:40.121Z,38.62
2023-05-26T10:24:40.184Z,33.79
2023-05-26T10:25:39.203Z,31.45
2023-05-26T10:26:39.241Z,25.67
2023-05-26T10:27:40.270Z,25.00
2023-05-26T10:28:40.277Z,26.13
2023-05-26T10:29:40.293Z,25.46
2023-05-26T10:30:40.321Z,27.55
2023-05-26T10:31:40.448Z,26.85
2023-05-26T10:32:40.417Z,24.62
2023-05-26T10:33:40.471Z,27.10
2023-05-26T10:34:41.808Z,27.59
2023-05-26T10:35:40.515Z,27.67
2023-05-26T10:36:40.469Z,27.91
2023-05-26T10:37:40.455Z,28.76
2023-05-26T10:38:39.456Z,28.23
2023-05-26T10:39:40.443Z,29.14
2023-05-26T10:40:40.547Z,31.43
2023-05-26T10:41:40.481Z,34.74
2023-05-26T10:42:40.462Z,30.45
2023-05-26T10:43:39.450Z,32.58
2023-05-26T10:44:39.453Z,37.30
2023-05-26T10:45:40.444Z,38.80
2023-05-26T10:46:40.637Z,37.37
2023-05-26T10:47:39.450Z,26.23
2023-05-26T10:48:39.422Z,27.05
2023-05-26T10:49:39.437Z,42.16
2023-05-26T10:50:39.397Z,47.64
2023-05-26T10:51:39.405Z,47.76
2023-05-26T10:52:39.360Z,45.28
2023-05-26T10:53:40.361Z,49.35
2023-05-26T10:54:40.372Z,49.64
2023-05-26T10:55:39.444Z,63.77
2023-05-26T10:56:39.450Z,60.99
2023-05-26T10:57:40.491Z,57.16
2023-05-26T10:58:40.541Z,55.99
2023-05-26T10:59:39.600Z,53.81
2023-05-26T11:00:39.689Z,64.23
2023-05-26T11:01:40.658Z,54.03
2023-05-26T11:02:39.774Z,55.66
2023-05-26T11:03:40.875Z,44.59
2023-05-26T11:04:40.729Z,34.76
2023-05-26T11:05:40.779Z,39.83
2023-05-26T11:06:40.775Z,44.66
2023-05-26T11:07:40.747Z,49.21
2023-05-26T11:08:40.842Z,57.83
2023-05-26T11:09:40.887Z,58.43
2023-05-26T11:10:40.897Z,59.93
2023-05-26T11:11:40.950Z,52.36
2023-05-26T11:12:40.964Z,49.66
2023-05-26T11:13:41.130Z,46.02
2023-05-26T11:14:41.074Z,50.09
2023-05-26T11:15:40.109Z,59.13
2023-05-26T11:16:41.212Z,59.40
2023-05-26T11:17:41.242Z,55.65
2023-05-26T11:18:41.252Z,54.14
2023-05-26T11:19:40.234Z,44.18
2023-05-26T11:20:41.431Z,41.48
2023-05-26T11:21:41.322Z,35.95
2023-05-26T11:22:41.360Z,31.06
2023-05-26T11:23:41.371Z,28.17
2023-05-26T11:24:40.438Z,25.01
2023-05-26T11:25:41.479Z,29.44
2023-05-26T11:26:40.474Z,25.57
2023-05-26T11:27:41.491Z,25.00
2023-05-26T11:28:41.652Z,26.76
2023-05-26T11:29:40.604Z,25.37
2023-05-26T11:30:41.617Z,23.33
2023-05-26T11:31:42.554Z,32.29
2023-05-26T11:32:41.686Z,27.89
2023-05-26T11:33:40.744Z,25.76
2023-05-26T11:34:41.792Z,28.97
2023-05-26T11:35:41.788Z,31.22
2023-05-26T11:36:40.830Z,28.08
2023-05-26T11:37:41.914Z,33.95
2023-05-26T11:38:41.876Z,35.54
2023-05-26T11:39:41.919Z,32.87
2023-05-26T11:40:41.987Z,40.84
2023-05-26T11:41:42.036Z,38.40
2023-05-26T11:42:42.035Z,54.40
2023-05-26T11:43:42.044Z,57.49
2023-05-26T11:44:42.100Z,52.97
2023-05-26T11:45:41.074Z,55.14
2023-05-26T11:46:42.077Z,64.25
2023-05-26T11:47:42.112Z,67.88
2023-05-26T11:48:41.125Z,62.41
2023-05-26T11:49:42.176Z,75.05
2023-05-26T11:50:41.159Z,67.03
2023-05-26T11:51:42.179Z,62.37
2023-05-26T11:52:41.170Z,56.81
2023-05-26T11:53:42.220Z,54.04
2023-05-26T11:54:42.209Z,43.09
2023-05-26T11:55:42.211Z,39.54
2023-05-26T11:56:42.251Z,37.63
2023-05-26T11:57:42.310Z,31.67
2023-05-26T11:58:42.327Z,32.48
2023-05-26T11:59:42.408Z,32.32
2023-05-26T12:00:42.421Z,28.12
2023-05-26T12:01:41.467Z,27.98
2023-05-26T12:02:41.635Z,26.13
2023-05-26T12:03:41.481Z,38.72
2023-05-26T12:04:41.496Z,37.53
2023-05-26T12:05:42.526Z,43.95
2023-05-26T12:06:42.525Z,50.49
2023-05-26T12:07:42.530Z,45.11
2023-05-26T12:08:42.554Z,36.53
2023-05-26T12:09:42.607Z,39.07
2023-05-26T12:10:42.624Z,42.12
2023-05-26T12:11:42.599Z,65.19
2023-05-26T12:12:41.656Z,66.04
2023-05-26T12:13:42.678Z,59.11
2023-05-26T12:14:42.773Z,55.88
2023-05-26T12:15:42.801Z,56.88
2023-05-26T12:16:42.926Z,52.93
2023-05-26T12:17:41.864Z,43.68
2023-05-26T12:18:42.901Z,46.85
2023-05-26T12:19:41.921Z,47.11
2023-05-26T12:20:44.990Z,50.70
2023-05-26T12:21:42.936Z,54.56
2023-05-26T12:22:41.904Z,59.44
2023-05-26T12:23:42.913Z,61.05
2023-05-26T12:24:42.938Z,72.40
2023-05-26T12:25:42.915Z,78.98
2023-05-26T12:26:42.902Z,82.21
2023-05-26T12:27:41.886Z,91.17
2023-05-26T12:28:42.877Z,101.03
2023-05-26T12:29:42.878Z,101.93
2023-05-26T12:31:42.001Z,107.71
2023-05-26T12:32:41.901Z,109.35
2023-05-26T12:33:42.849Z,113.37
2023-05-26T12:34:41.845Z,121.35
2023-05-26T12:35:42.853Z,133.88
2023-05-26T12:36:44.637Z,138.24
2023-05-26T12:37:42.807Z,138.44
2023-05-26T12:38:42.828Z,139.75
2023-05-26T12:39:42.804Z,143.25